Time;durP1;ratioP1;P1;durP2;ratioP2;P2;SDS_P1;SDS_P2;PMS_P1;PMS_P2;Temp;Humidity;BMP_temperature;BMP_pressure;BME280_temperature;BME280_humidity;BME280_pressure;Samples;Min_cycle;Max_cycle;Signal;HPM_P1;HPM_P2
2023/05/17 00:01:02;;;;;;;10.63;2.55;;;14.40;80.10;;;;;;4953739;29;20061;-70
2023/05/17 00:03:30;;;;;;;7.88;2.13;;;14.50;82.20;;;;;;4954567;28;20078;-70
2023/05/17 00:05:57;;;;;;;11.02;1.90;;;14.50;81.90;;;;;;4955936;28;20110;-71
2023/05/17 00:08:25;;;;;;;15.10;2.08;;;14.50;81.30;;;;;;4954219;28;20031;-70
2023/05/17 00:10:52;;;;;;;13.40;1.88;;;14.50;80.90;;;;;;4937266;29;20555;-70
2023/05/17 06:02:26;;;;;;;4.05;1.27;;;15.40;76.00;;;;;;4944939;28;20074;-67
2023/05/17 06:04:53;;;;;;;12.10;1.65;;;15.40;75.20;;;;;;4937864;29;20141;-67
2023/05/17 06:07:21;;;;;;;9.25;2.33;;;15.40;75.80;;;;;;4951169;28;20051;-67
2023/05/17 06:09:48;;;;;;;14.32;1.63;;;15.40;76.20;;;;;;4951224;29;20483;-67
2023/05/17 06:12:16;;;;;;;8.75;1.73;;;15.40;74.40;;;;;;4934060;29;20042;-67
2023/05/17 06:14:44;;;;;;;8.45;1.63;;;15.50;74.50;;;;;;4950892;29;20035;-67
2023/05/17 06:17:11;;;;;;;8.05;1.73;;;15.50;74.60;;;;;;4963540;28;20054;-66
2023/05/17 06:19:38;;;;;;;7.57;2.03;;;15.50;74.40;;;;;;4970230;28;20038;-67
2023/05/17 06:22:06;;;;;;;5.10;1.30;;;15.40;74.40;;;;;;4955263;28;20054;-66
2023/05/17 06:24:33;;;;;;;8.90;1.67;;;15.40;74.10;;;;;;4951160;29;20401;-67
2023/05/17 06:27:01;;;;;;;8.57;1.35;;;15.40;75.00;;;;;;4950945;28;20083;-67
2023/05/17 06:29:28;;;;;;;12.48;1.70;;;15.40;75.10;;;;;;4965544;28;20035;-70
2023/05/17 06:31:56;;;;;;;13.20;1.90;;;15.30;77.30;;;;;;4953112;28;20034;-68
2023/05/17 06:34:24;;;;;;;6.57;1.45;;;15.20;80.20;;;;;;4969809;28;20122;-68
2023/05/17 06:36:51;;;;;;;9.00;2.10;;;15.00;80.70;;;;;;4970272;28;20047;-67
2023/05/17 06:39:19;;;;;;;7.05;1.30;;;14.80;80.30;;;;;;4952756;28;20046;-69
2023/05/17 06:41:46;;;;;;;2.53;0.90;;;14.70;79.80;;;;;;4950312;28;20043;-69
2023/05/17 06:44:14;;;;;;;7.82;1.50;;;14.70;79.20;;;;;;4918097;29;20059;-70
2023/05/17 06:46:41;;;;;;;6.18;1.35;;;14.60;79.70;;;;;;4950718;28;20145;-69
2023/05/17 06:49:09;;;;;;;4.43;1.27;;;14.60;79.90;;;;;;4951032;29;20506;-68
2023/05/17 06:51:36;;;;;;;10.02;2.03;;;14.60;79.70;;;;;;4950883;29;20039;-69
2023/05/17 06:54:04;;;;;;;9.82;1.70;;;14.60;79.80;;;;;;4957492;28;20047;-68
2023/05/17 06:56:31;;;;;;;6.25;1.35;;;14.70;80.60;;;;;;4926157;29;20175;-68
2023/05/17 06:58:59;;;;;;;10.88;1.77;;;14.60;80.60;;;;;;4949382;29;20036;-68
2023/05/17 07:01:26;;;;;;;7.05;2.05;;;14.70;81.10;;;;;;4937433;29;20049;-69
2023/05/17 07:03:54;;;;;;;9.85;1.48;;;14.70;80.90;;;;;;4949425;28;20522;-69
2023/05/17 07:06:21;;;;;;;12.50;1.92;;;14.70;80.40;;;;;;4950149;28;20240;-69
2023/05/17 07:08:49;;;;;;;6.90;1.58;;;14.70;81.20;;;;;;4934927;29;20553;-68
2023/05/17 07:11:16;;;;;;;6.47;1.80;;;14.70;80.60;;;;;;4954092;29;20043;-67
2023/05/17 07:13:44;;;;;;;9.25;1.60;;;14.70;80.40;;;;;;4969789;28;20050;-67
2023/05/17 07:16:11;;;;;;;7.60;1.85;;;14.70;80.10;;;;;;4952122;28;20031;-67
2023/05/17 07:18:38;;;;;;;2.15;0.98;;;14.60;80.20;;;;;;4944871;29;20032;-66
2023/05/17 07:21:07;;;;;;;7.47;1.63;;;14.60;80.10;;;;;;4943282;29;20216;-67
2023/05/17 07:23:34;;;;;;;8.80;1.60;;;14.60;79.60;;;;;;4947970;28;20039;-67
2023/05/17 07:26:02;;;;;;;6.35;1.27;;;14.70;79.90;;;;;;4947526;28;20051;-70
2023/05/17 07:28:29;;;;;;;4.65;1.30;;;14.60;80.50;;;;;;4922728;28;20047;-68
2023/05/17 07:30:57;;;;;;;11.10;1.65;;;14.60;80.30;;;;;;4947029;29;20035;-69
2023/05/17 07:33:24;;;;;;;7.45;1.45;;;14.60;79.90;;;;;;4950264;28;20027;-66
2023/05/17 07:35:51;;;;;;;10.48;1.50;;;14.50;79.70;;;;;;4953552;29;20043;-67
2023/05/17 07:38:19;;;;;;;7.45;1.65;;;14.50;80.40;;;;;;4960586;28;20178;-66
2023/05/17 07:40:46;;;;;;;8.77;1.45;;;14.50;81.10;;;;;;4955384;28;20047;-65
2023/05/17 07:43:14;;;;;;;11.02;1.90;;;14.50;81.40;;;;;;4970708;28;20038;-66
2023/05/17 07:45:43;;;;;;;10.00;1.55;;;14.50;81.50;;;;;;4972881;28;20046;-67
2023/05/17 07:48:10;;;;;;;6.93;1.40;;;14.50;81.50;;;;;;4939531;28;20061;-68
2023/05/17 07:50:38;;;;;;;12.50;1.58;;;14.50;81.70;;;;;;4953591;29;20042;-68
2023/05/17 07:53:05;;;;;;;8.32;1.80;;;14.40;81.80;;;;;;4953760;28;20139;-68
2023/05/17 07:55:33;;;;;;;6.18;1.50;;;14.40;81.80;;;;;;4948943;28;20472;-69
2023/05/17 07:58:00;;;;;;;8.23;1.52;;;14.40;81.50;;;;;;4953071;28;20023;-69
2023/05/17 08:00:28;;;;;;;6.63;1.85;;;14.40;81.40;;;;;;4949347;28;20122;-68
2023/05/17 08:02:56;;;;;;;5.70;1.92;;;14.40;80.90;;;;;;4951260;28;20044;-70
2023/05/17 08:05:24;;;;;;;8.13;1.60;;;14.40;80.20;;;;;;4942290;28;20039;-67
2023/05/17 08:07:52;;;;;;;9.27;1.58;;;14.40;80.40;;;;;;4953370;28;20055;-70
2023/05/17 08:10:20;;;;;;;5.35;1.60;;;14.40;80.60;;;;;;4956480;28;20036;-69
2023/05/17 08:12:47;;;;;;;6.57;1.35;;;14.50;80.70;;;;;;4952850;28;20042;-70
2023/05/17 08:15:15;;;;;;;5.50;1.38;;;14.40;81.00;;;;;;4934986;28;20039;-72
2023/05/17 08:17:42;;;;;;;6.20;1.50;;;14.40;81.30;;;;;;4946605;28;20046;-70
2023/05/17 08:20:10;;;;;;;4.10;1.40;;;14.40;80.80;;;;;;4971907;28;20081;-69
2023/05/17 08:22:37;;;;;;;6.85;1.58;;;14.40;80.20;;;;;;4972604;28;20054;-69
2023/05/17 08:25:05;;;;;;;6.47;1.10;;;14.40;79.30;;;;;;4957533;28;20036;-69
2023/05/17 10:32:55;;;;;;;6.43;1.70;;;14.20;80.50;;;;;;4950948;28;20146;-66
2023/05/17 10:35:22;;;;;;;6.55;1.60;;;14.10;80.70;;;;;;4936436;28;20088;-65
2023/05/17 10:37:50;;;;;;;7.57;2.15;;;14.10;80.40;;;;;;4935995;29;20039;-65
2023/05/17 10:40:19;;;;;;;6.00;1.85;;;14.10;80.20;;;;;;4955024;28;20470;-66
2023/05/17 10:42:53;;;;;;;11.73;2.00;;;14.10;80.40;;;;;;4957725;28;20118;-65
2023/05/17 10:45:21;;;;;;;8.18;2.00;;;14.00;80.00;;;;;;4936395;28;20564;-65
2023/05/17 10:47:53;;;;;;;13.50;2.08;;;14.00;80.00;;;;;;4971111;28;20062;-66
2023/05/17 10:50:25;;;;;;;7.80;1.50;;;14.00;80.10;;;;;;4951478;28;20502;-66
2023/05/17 10:52:55;;;;;;;6.50;1.42;;;14.00;79.90;;;;;;4957509;28;20118;-65
2023/05/17 10:55:27;;;;;;;14.32;2.10;;;14.00;79.90;;;;;;4954286;28;20047;-65
2023/05/17 10:58:14;;;;;;;5.97;1.52;;;14.10;79.90;;;;;;4951268;28;20035;-65
2023/05/17 11:00:48;;;;;;;6.60;1.48;;;14.00;79.70;;;;;;4976257;28;20039;-66
2023/05/17 11:03:22;;;;;;;6.07;2.08;;;14.00;79.30;;;;;;4941663;29;20430;-65
2023/05/17 11:06:08;;;;;;;3.70;1.45;;;14.00;79.60;;;;;;4956464;28;20039;-66
2023/05/17 11:08:36;;;;;;;5.50;1.50;;;14.10;79.90;;;;;;4961753;28;20027;-66
2023/05/17 11:11:16;;;;;;;6.35;1.30;;;14.10;79.40;;;;;;4976221;28;20035;-66
2023/05/17 11:13:51;;;;;;;10.68;1.40;;;14.10;79.30;;;;;;4938119;28;20038;-66
2023/05/17 11:16:20;;;;;;;4.50;1.25;;;14.10;80.20;;;;;;4956802;28;20409;-66
2023/05/17 11:18:51;;;;;;;5.90;1.33;;;14.00;80.60;;;;;;4940192;29;20478;-66
2023/05/17 11:21:20;;;;;;;5.80;1.40;;;14.00;81.10;;;;;;4957083;29;20054;-66
2023/05/17 11:23:48;;;;;;;6.80;1.60;;;13.90;81.30;;;;;;4943926;28;20039;-66
2023/05/17 11:26:23;;;;;;;3.75;1.45;;;13.90;81.00;;;;;;4938892;28;20580;-66
2023/05/17 11:29:09;;;;;;;6.13;1.40;;;14.00;81.10;;;;;;4924548;29;20042;-66
2023/05/17 11:45:26;;;;;;;4.85;1.55;;;14.10;80.50;;;;;;4948383;28;20087;-66
2023/05/17 11:47:53;;;;;;;7.60;1.73;;;14.00;80.50;;;;;;4956433;28;20059;-66
2023/05/17 11:50:21;;;;;;;7.13;1.65;;;14.00;80.40;;;;;;4938961;28;20393;-66
2023/05/17 11:52:48;;;;;;;9.40;1.55;;;14.00;80.60;;;;;;4923351;28;20043;-65
2023/05/17 11:55:16;;;;;;;6.25;1.83;;;14.00;80.50;;;;;;4922708;29;20079;-66
2023/05/17 11:57:43;;;;;;;8.93;1.90;;;14.00;80.70;;;;;;4922920;29;20031;-65
2023/05/17 12:00:12;;;;;;;13.18;2.38;;;14.00;80.80;;;;;;4929749;28;20031;-66
2023/05/17 12:02:39;;;;;;;12.65;1.85;;;14.00;80.80;;;;;;4960034;28;20652;-65
2023/05/17 12:05:08;;;;;;;8.15;1.80;;;14.00;80.30;;;;;;4954806;28;20059;-65
2023/05/17 12:07:36;;;;;;;7.97;1.88;;;14.00;80.70;;;;;;4939093;29;20067;-65
2023/05/17 12:10:05;;;;;;;8.07;1.52;;;14.00;80.10;;;;;;4938643;29;20035;-65
2023/05/17 12:12:32;;;;;;;8.30;1.80;;;14.00;80.90;;;;;;4922545;29;20046;-66
2023/05/17 12:15:00;;;;;;;11.65;1.60;;;14.00;81.00;;;;;;4955396;28;20035;-65
2023/05/17 12:17:40;;;;;;;7.75;1.75;;;14.00;80.90;;;;;;4938885;29;20134;-65
2023/05/17 12:20:08;;;;;;;5.30;1.80;;;14.00;80.90;;;;;;4939960;28;20405;-65
2023/05/17 12:22:53;;;;;;;5.65;1.75;;;14.00;81.50;;;;;;4965674;28;20041;-65
2023/05/17 12:25:24;;;;;;;6.22;1.67;;;13.80;81.60;;;;;;4931580;28;20035;-65
2023/05/17 12:27:51;;;;;;;;;;;13.70;82.40;;;;;;4925159;28;20042;-65
2023/05/17 12:30:19;;;;;;;8.57;1.63;;;13.70;83.20;;;;;;4955354;29;20420;-65
2023/05/17 12:32:46;;;;;;;6.13;1.73;;;13.60;83.00;;;;;;4955033;28;20046;-65
2023/05/17 12:35:14;;;;;;;7.47;1.88;;;13.50;83.60;;;;;;4942632;28;20031;-65
2023/05/17 12:37:41;;;;;;;6.78;1.52;;;13.40;83.40;;;;;;4965135;28;20551;-65
2023/05/17 12:40:10;;;;;;;9.25;2.13;;;13.30;83.50;;;;;;4955324;29;20050;-65
2023/05/17 12:42:39;;;;;;;5.05;1.65;;;13.30;83.40;;;;;;4955710;29;20039;-65
2023/05/17 15:02:44;;;;;;;3.88;1.30;;;11.80;93.90;;;;;;4926812;28;20046;-64
2023/05/17 15:05:11;;;;;;;3.67;1.20;;;11.80;93.50;;;;;;4964192;28;20063;-64
2023/05/17 15:07:39;;;;;;;7.07;1.40;;;11.80;93.20;;;;;;4937744;29;20043;-65
2023/05/17 15:10:07;;;;;;;6.35;1.50;;;11.80;93.40;;;;;;4959650;28;20038;-64
2023/05/17 15:12:35;;;;;;;6.78;1.25;;;11.90;93.30;;;;;;4956553;28;20379;-64
2023/05/17 15:15:02;;;;;;;4.10;1.42;;;11.90;93.00;;;;;;4957279;29;20035;-64
2023/05/17 15:17:30;;;;;;;4.88;1.25;;;12.00;92.80;;;;;;4964469;28;20495;-64
2023/05/17 15:19:58;;;;;;;4.28;1.27;;;11.90;92.20;;;;;;4956081;28;20631;-64
2023/05/17 15:22:26;;;;;;;6.10;1.65;;;11.80;91.70;;;;;;4940052;29;20035;-64
2023/05/17 15:24:53;;;;;;;6.50;1.50;;;11.80;90.70;;;;;;4956211;28;20118;-64
2023/05/17 15:27:20;;;;;;;4.75;1.35;;;11.80;91.50;;;;;;4955462;28;20500;-63
2023/05/17 15:29:48;;;;;;;3.60;1.23;;;11.80;91.80;;;;;;4961285;28;20039;-63
2023/05/17 15:32:15;;;;;;;4.78;1.30;;;11.80;92.00;;;;;;4956662;29;20036;-63
2023/05/17 15:34:44;;;;;;;5.80;1.40;;;11.80;92.40;;;;;;4956511;28;20047;-63
2023/05/17 15:37:11;;;;;;;4.05;1.15;;;11.80;92.50;;;;;;4956119;28;20039;-64
2023/05/17 15:39:38;;;;;;;4.63;1.10;;;11.80;92.30;;;;;;4956234;28;20504;-64
2023/05/17 15:42:06;;;;;;;2.60;1.55;;;11.80;92.30;;;;;;4969664;28;20150;-64
2023/05/17 15:44:33;;;;;;;3.63;1.15;;;11.80;92.10;;;;;;4975795;28;20058;-63
2023/05/17 15:47:01;;;;;;;7.90;1.40;;;11.80;92.20;;;;;;4945162;29;20051;-64
2023/05/17 15:49:28;;;;;;;3.60;1.20;;;11.80;92.30;;;;;;4938979;28;20023;-64
2023/05/17 15:51:56;;;;;;;5.15;1.13;;;11.70;92.00;;;;;;4956260;28;20086;-64
2023/05/17 15:54:23;;;;;;;2.70;1.40;;;11.70;92.00;;;;;;4971623;28;20070;-64
2023/05/17 15:56:50;;;;;;;3.72;1.10;;;11.70;92.10;;;;;;4964294;28;20042;-64
2023/05/17 15:59:18;;;;;;;5.03;1.30;;;11.70;92.30;;;;;;4956095;28;20040;-64
2023/05/17 16:01:45;;;;;;;4.35;1.10;;;11.70;92.20;;;;;;4955423;28;20043;-64
2023/05/17 16:04:13;;;;;;;3.90;1.10;;;11.70;92.20;;;;;;4968741;28;20057;-64
2023/05/17 16:06:41;;;;;;;5.47;1.30;;;11.70;92.20;;;;;;4965677;28;20094;-64
2023/05/17 16:09:08;;;;;;;5.82;1.40;;;11.70;92.10;;;;;;4956279;29;20063;-64
2023/05/17 16:11:39;;;;;;;7.28;1.30;;;11.70;92.10;;;;;;4960646;28;20054;-64
2023/05/17 16:14:06;;;;;;;8.00;1.25;;;11.70;92.30;;;;;;4974705;28;20371;-64
2023/05/17 16:16:34;;;;;;;2.47;0.98;;;11.70;92.40;;;;;;4941977;28;20501;-64
2023/05/17 16:19:03;;;;;;;4.28;1.20;;;11.70;92.30;;;;;;4922724;29;20049;-64
2023/05/17 16:21:30;;;;;;;5.82;1.17;;;11.70;92.10;;;;;;4955630;28;20090;-64
2023/05/17 16:23:57;;;;;;;3.17;1.15;;;11.70;92.00;;;;;;4955824;28;20062;-64
2023/05/17 16:26:25;;;;;;;5.20;1.23;;;11.60;91.90;;;;;;4954993;28;20074;-64
2023/05/17 16:28:52;;;;;;;4.22;2.35;;;11.60;92.10;;;;;;4971196;28;20042;-64
2023/05/17 16:31:20;;;;;;;4.15;1.30;;;11.60;91.80;;;;;;4959728;28;20050;-64
2023/05/17 16:33:47;;;;;;;2.72;0.98;;;11.60;91.70;;;;;;4957272;28;20043;-64
2023/05/17 16:36:15;;;;;;;2.92;1.17;;;11.60;91.70;;;;;;4955075;28;20031;-64
2023/05/17 16:38:42;;;;;;;8.05;1.50;;;11.60;91.40;;;;;;4954472;28;20035;-64
2023/05/17 16:41:10;;;;;;;6.57;1.27;;;11.60;91.40;;;;;;4959206;28;20028;-64
2023/05/17 16:43:37;;;;;;;9.05;1.30;;;11.50;91.00;;;;;;4955760;28;20050;-64
2023/05/17 16:46:05;;;;;;;5.88;1.50;;;11.60;91.10;;;;;;4955471;29;20027;-64
2023/05/17 16:48:32;;;;;;;6.22;1.98;;;11.50;90.70;;;;;;4955754;28;20039;-64
2023/05/17 16:50:59;;;;;;;2.95;1.38;;;11.50;90.40;;;;;;4956637;28;20050;-64
2023/05/17 18:11:43;;;;;;;9.65;1.40;;;11.50;86.20;;;;;;4938213;28;20046;-65
2023/05/17 18:14:13;;;;;;;4.28;1.60;;;11.50;86.40;;;;;;4953297;28;20059;-65
2023/05/17 18:16:41;;;;;;;2.45;1.20;;;11.50;86.00;;;;;;4954162;28;20039;-65
2023/05/17 18:19:09;;;;;;;4.47;1.35;;;11.60;85.60;;;;;;4953266;28;20034;-65
2023/05/17 18:21:36;;;;;;;3.25;1.55;;;11.60;86.00;;;;;;4935880;29;20039;-64
2023/05/17 18:24:04;;;;;;;4.70;1.50;;;11.60;86.50;;;;;;4931775;28;20035;-65
2023/05/17 18:26:31;;;;;;;5.22;1.40;;;11.60;85.80;;;;;;4962385;28;20074;-63
2023/05/17 18:28:59;;;;;;;4.43;1.38;;;11.60;85.20;;;;;;4954780;28;20035;-65
2023/05/17 18:31:26;;;;;;;3.63;1.45;;;11.60;85.30;;;;;;4954660;28;20066;-65
2023/05/17 18:33:53;;;;;;;3.90;1.30;;;11.60;85.10;;;;;;4941631;28;20035;-64
2023/05/17 18:36:21;;;;;;;5.40;1.23;;;11.60;84.50;;;;;;4952150;29;20035;-65
2023/05/17 18:38:48;;;;;;;10.40;1.48;;;11.60;84.70;;;;;;4956361;28;20090;-65
2023/05/17 18:41:16;;;;;;;2.20;1.27;;;11.60;84.00;;;;;;4973351;28;20035;-66
2023/05/17 18:43:43;;;;;;;3.72;1.50;;;11.50;84.00;;;;;;4959598;28;20039;-65
2023/05/17 18:46:11;;;;;;;3.10;1.30;;;11.50;84.00;;;;;;4942070;29;20035;-65
2023/05/17 18:48:39;;;;;;;7.70;2.10;;;11.50;83.90;;;;;;4938821;28;20122;-65
2023/05/17 18:51:07;;;;;;;6.10;1.75;;;11.40;83.70;;;;;;4936262;29;20042;-66
2023/05/17 18:53:37;;;;;;;3.75;1.40;;;11.40;83.80;;;;;;4952585;28;20058;-65
2023/05/17 18:56:05;;;;;;;5.88;1.58;;;11.40;83.80;;;;;;4952703;28;20032;-65
2023/05/17 18:58:32;;;;;;;2.67;1.23;;;11.50;84.50;;;;;;4968128;28;20070;-65
2023/05/17 19:01:01;;;;;;;4.63;1.45;;;11.40;83.40;;;;;;4946071;28;20098;-65
2023/05/17 19:03:28;;;;;;;5.72;1.40;;;11.40;84.10;;;;;;4940019;29;20035;-66
2023/05/17 19:05:56;;;;;;;3.78;1.10;;;11.40;84.20;;;;;;4941419;29;20036;-65
2023/05/17 19:08:23;;;;;;;3.03;1.33;;;11.40;83.50;;;;;;4968695;28;20059;-66
2023/05/17 20:59:18;;;;;;;5.93;1.50;;;11.10;82.00;;;;;;4935368;28;20066;-66
2023/05/17 21:01:45;;;;;;;4.97;1.63;;;11.10;82.40;;;;;;4954932;29;20106;-66
2023/05/17 21:04:13;;;;;;;5.57;1.92;;;11.10;82.10;;;;;;4955010;29;20023;-66
2023/05/17 21:06:40;;;;;;;2.47;1.27;;;11.10;82.50;;;;;;4954713;28;20062;-66
2023/05/17 21:09:08;;;;;;;4.35;1.52;;;11.10;82.70;;;;;;4953417;28;20047;-66
2023/05/17 21:11:35;;;;;;;4.25;1.50;;;11.10;82.60;;;;;;4953590;28;20151;-66
2023/05/17 21:14:03;;;;;;;3.75;1.65;;;11.20;83.00;;;;;;4954593;29;20043;-66
2023/05/17 21:16:30;;;;;;;8.00;1.77;;;11.20;83.00;;;;;;4954856;29;20039;-65
2023/05/17 21:18:57;;;;;;;5.25;1.58;;;11.20;83.00;;;;;;4937254;28;20039;-66
2023/05/17 21:21:25;;;;;;;10.65;2.03;;;11.20;83.00;;;;;;4954558;29;20407;-66
2023/05/17 21:23:52;;;;;;;5.07;1.65;;;11.20;83.10;;;;;;4954383;28;20063;-66
2023/05/17 21:26:20;;;;;;;8.18;1.80;;;11.20;83.70;;;;;;4937514;29;20039;-66
2023/05/17 21:28:47;;;;;;;5.38;1.73;;;11.20;82.80;;;;;;4954786;28;20039;-66
2023/05/17 21:31:15;;;;;;;5.20;1.65;;;11.20;83.40;;;;;;4953680;28;20446;-66
2023/05/17 21:33:42;;;;;;;8.20;1.77;;;11.30;83.30;;;;;;4937527;29;20058;-66
2023/05/17 21:36:10;;;;;;;7.68;1.50;;;11.30;82.50;;;;;;4937377;29;20032;-65
2023/05/17 21:38:37;;;;;;;5.32;1.70;;;11.30;82.70;;;;;;4937160;29;20070;-66
2023/05/17 21:41:04;;;;;;;3.97;1.42;;;11.20;82.60;;;;;;4935007;29;20093;-66
2023/05/17 21:43:32;;;;;;;9.68;1.52;;;11.30;82.70;;;;;;4937349;29;20031;-66
2023/05/17 21:45:59;;;;;;;3.92;1.58;;;11.30;82.10;;;;;;4954288;29;20035;-66
2023/05/17 21:48:27;;;;;;;7.35;1.60;;;11.30;82.20;;;;;;4954082;28;20074;-66
2023/05/17 21:50:54;;;;;;;3.28;1.50;;;11.30;82.70;;;;;;4953479;28;20034;-66
2023/05/17 21:53:22;;;;;;;7.50;1.80;;;11.30;82.20;;;;;;4953115;28;20043;-66
2023/05/17 21:55:49;;;;;;;8.77;2.50;;;11.30;82.20;;;;;;4954352;29;20039;-66
2023/05/17 21:58:19;;;;;;;5.85;1.90;;;11.30;82.50;;;;;;4953521;28;20118;-66
